Time;durP1;ratioP1;P1;durP2;ratioP2;P2;SDS_P1;SDS_P2;PMS_P1;PMS_P2;Temp;Humidity;BMP_temperature;BMP_pressure;BME280_temperature;BME280_humidity;BME280_pressure;Samples;Min_cycle;Max_cycle;Signal;HPM_P1;HPM_P2
2021/12/18 00:02:10;;;;;;;3.33;1.97;;;2.80;99.90;;;;;;5070877;28;20178;-77
2021/12/18 00:04:35;;;;;;;3.27;3.07;;;2.90;99.90;;;;;;5071281;28;20210;-71
2021/12/18 00:07:01;;;;;;;2.40;2.23;;;2.90;99.90;;;;;;5072619;28;20670;-72
2021/12/18 00:09:30;;;;;;;2.20;2.10;;;2.90;99.90;;;;;;5073109;28;20180;-72
2021/12/18 00:11:57;;;;;;;4.97;3.67;;;2.90;99.90;;;;;;5072883;28;20241;-71
2021/12/18 00:14:22;;;;;;;3.27;2.67;;;3.00;99.90;;;;;;5072067;28;20718;-72
2021/12/18 00:16:48;;;;;;;3.50;3.30;;;3.00;99.90;;;;;;5072257;28;20176;-71
2021/12/18 00:19:13;;;;;;;1.53;1.40;;;3.10;99.90;;;;;;5072405;28;20199;-71
2021/12/18 00:21:39;;;;;;;4.63;1.20;;;3.20;99.90;;;;;;5072386;28;20218;-72
2021/12/18 00:24:06;;;;;;;3.30;2.80;;;3.30;99.90;;;;;;5070893;28;20307;-71
2021/12/18 00:26:33;;;;;;;2.77;2.57;;;3.30;99.90;;;;;;5075801;28;20533;-71
2021/12/18 00:28:59;;;;;;;4.53;4.10;;;3.40;99.90;;;;;;5074536;28;20237;-71
2021/12/18 00:31:24;;;;;;;2.87;2.20;;;3.40;99.90;;;;;;5075691;28;20646;-71
2021/12/18 00:33:50;;;;;;;1.47;1.37;;;3.50;99.90;;;;;;5075710;28;20174;-71
2021/12/18 00:36:15;;;;;;;4.70;4.30;;;3.60;99.90;;;;;;5075309;28;20180;-71
2021/12/18 00:38:42;;;;;;;5.13;3.00;;;3.60;99.90;;;;;;5074142;28;20207;-69
2021/12/18 00:43:38;;;;;;;5.43;3.13;;;3.70;99.90;;;;;;5072270;28;20263;-70
2021/12/18 00:46:04;;;;;;;5.37;4.90;;;3.80;99.90;;;;;;5073126;28;20187;-72
2021/12/18 00:48:30;;;;;;;2.60;2.50;;;3.80;99.90;;;;;;5071563;28;20558;-71
2021/12/18 00:50:56;;;;;;;3.40;3.10;;;3.90;99.90;;;;;;5075018;28;20890;-70
2021/12/18 00:53:22;;;;;;;4.23;3.07;;;3.90;99.90;;;;;;5073753;28;20180;-72
2021/12/18 00:55:50;;;;;;;6.50;2.33;;;3.90;99.90;;;;;;5074975;28;20204;-71
2021/12/18 00:58:15;;;;;;;4.63;4.33;;;3.90;99.90;;;;;;5074742;28;20268;-72
2021/12/18 01:00:42;;;;;;;1.60;1.50;;;3.90;99.90;;;;;;5073358;28;20648;-71
2021/12/18 01:03:16;;;;;;;3.70;3.43;;;3.90;99.90;;;;;;5074565;28;20679;-71
2021/12/18 01:05:43;;;;;;;3.43;2.97;;;3.90;99.90;;;;;;5074354;28;20195;-71
2021/12/18 01:08:09;;;;;;;1.80;1.73;;;4.00;99.90;;;;;;5074001;28;20254;-71
2021/12/18 01:13:24;;;;;;;3.97;3.70;;;4.00;99.90;;;;;;5074909;28;20670;-71
2021/12/18 01:15:53;;;;;;;1.77;1.67;;;4.10;99.90;;;;;;5074232;28;20203;-71
2021/12/18 01:23:48;;;;;;;2.50;2.30;;;4.00;99.90;;;;;;5073908;28;20184;-71
2021/12/18 01:26:13;;;;;;;4.10;3.00;;;4.00;99.90;;;;;;5072220;28;20199;-71
2021/12/18 01:28:39;;;;;;;2.47;2.27;;;4.00;99.90;;;;;;5066689;28;20181;-71
2021/12/18 01:31:05;;;;;;;2.20;2.10;;;4.10;99.90;;;;;;5059865;28;20546;-71
2021/12/18 01:33:33;;;;;;;1.83;1.73;;;4.20;99.90;;;;;;5068399;28;20184;-70
2021/12/18 01:36:01;;;;;;;6.50;5.50;;;4.30;99.90;;;;;;5071617;28;20211;-73
2021/12/18 01:38:30;;;;;;;3.57;2.10;;;4.40;99.90;;;;;;5074918;28;20204;-72
2021/12/18 01:40:56;;;;;;;0.47;0.47;;;4.40;99.90;;;;;;5055158;28;20185;-73
2021/12/18 01:53:40;;;;;;;3.97;2.57;;;4.50;99.90;;;;;;5075589;28;20263;-72
2021/12/18 01:56:06;;;;;;;3.40;3.20;;;4.50;99.90;;;;;;5074263;28;20215;-73
2021/12/18 01:58:32;;;;;;;4.00;3.53;;;4.50;99.90;;;;;;5073678;28;20621;-72
2021/12/18 02:00:58;;;;;;;2.87;2.63;;;4.60;99.90;;;;;;5073701;28;20263;-72
2021/12/18 02:03:24;;;;;;;4.07;3.00;;;4.60;99.90;;;;;;5075071;28;20199;-72
2021/12/18 02:05:52;;;;;;;9.97;5.87;;;4.70;99.90;;;;;;5073331;28;20675;-71
2021/12/18 02:08:20;;;;;;;4.50;3.87;;;4.80;99.90;;;;;;5073483;28;20267;-72
2021/12/18 02:10:51;;;;;;;4.43;3.97;;;4.80;99.90;;;;;;5074295;28;20667;-72
2021/12/18 02:21:11;;;;;;;9.17;6.90;;;4.90;99.90;;;;;;5074563;28;20179;-72
2021/12/18 02:23:38;;;;;;;6.13;5.60;;;4.90;99.90;;;;;;5074455;28;20542;-72
2021/12/18 02:26:04;;;;;;;4.90;2.53;;;4.90;99.90;;;;;;5073592;28;20865;-72
2021/12/18 02:28:29;;;;;;;3.80;3.50;;;5.00;99.90;;;;;;5073513;28;20659;-71
2021/12/18 02:30:57;;;;;;;9.03;5.90;;;5.00;99.90;;;;;;5073599;28;20176;-71
2021/12/18 02:33:24;;;;;;;3.60;3.10;;;5.10;99.90;;;;;;5074033;28;20571;-73
2021/12/18 02:35:52;;;;;;;9.43;4.40;;;5.10;99.90;;;;;;5072655;28;20727;-72
2021/12/18 02:38:56;;;;;;;5.20;1.53;;;5.20;99.90;;;;;;5072666;28;20200;-72
2021/12/18 02:44:08;;;;;;;4.77;4.23;;;5.10;99.90;;;;;;5046284;28;20193;-71
2021/12/18 02:46:33;;;;;;;4.63;3.20;;;5.20;99.90;;;;;;5067922;28;20215;-72
2021/12/18 02:49:06;;;;;;;5.30;3.77;;;5.20;99.90;;;;;;5075078;28;20624;-72
2021/12/18 02:51:32;;;;;;;7.77;4.50;;;5.20;99.90;;;;;;5072472;28;20259;-72
2021/12/18 02:53:57;;;;;;;4.00;3.07;;;5.30;99.90;;;;;;5071337;28;20790;-72
2021/12/18 02:56:23;;;;;;;2.50;2.40;;;5.20;99.90;;;;;;5072363;28;20184;-71
2021/12/18 02:59:04;;;;;;;6.03;5.43;;;5.30;99.90;;;;;;5072267;28;20614;-72
2021/12/18 03:01:30;;;;;;;3.90;2.20;;;5.30;99.90;;;;;;5072005;28;20172;-72
2021/12/18 03:03:58;;;;;;;1.87;1.83;;;5.40;99.90;;;;;;5072383;28;20205;-72
2021/12/18 03:25:00;;;;;;;5.40;4.10;;;5.50;99.90;;;;;;5073556;28;20196;-71
2021/12/18 03:27:27;;;;;;;4.13;3.70;;;5.50;99.90;;;;;;5073861;28;20192;-71
2021/12/18 03:29:52;;;;;;;5.53;5.10;;;5.60;99.90;;;;;;5073897;28;20557;-71
2021/12/18 03:32:18;;;;;;;4.93;3.57;;;5.60;99.90;;;;;;5074031;28;20222;-70
2021/12/18 03:34:45;;;;;;;4.53;3.10;;;5.60;99.90;;;;;;5073625;28;20239;-73
2021/12/18 03:37:10;;;;;;;4.47;3.63;;;5.60;99.90;;;;;;5073367;28;20210;-72
2021/12/18 03:39:36;;;;;;;8.47;4.67;;;5.60;99.90;;;;;;5063858;28;20180;-72
2021/12/18 03:42:06;;;;;;;5.00;3.93;;;5.60;99.90;;;;;;5056538;28;20215;-71
2021/12/18 03:44:33;;;;;;;2.50;2.20;;;5.60;99.90;;;;;;5090113;22;20212;-69
2021/12/18 03:46:58;;;;;;;9.03;5.07;;;5.60;99.90;;;;;;5020723;28;20177;-71
2021/12/18 03:49:24;;;;;;;6.00;3.80;;;5.60;99.90;;;;;;5031091;28;20188;-71
2021/12/18 03:51:50;;;;;;;3.00;2.83;;;5.60;99.90;;;;;;5031044;28;20502;-70
2021/12/18 03:54:16;;;;;;;3.50;3.30;;;5.60;99.90;;;;;;5043221;28;20230;-70
2021/12/18 03:56:42;;;;;;;5.30;4.90;;;5.50;99.90;;;;;;5050588;28;20201;-70
2021/12/18 03:59:07;;;;;;;8.07;5.07;;;5.50;99.90;;;;;;5051292;28;20197;-71
2021/12/18 04:01:33;;;;;;;4.73;4.00;;;5.50;99.90;;;;;;5055054;28;20204;-70
2021/12/18 04:03:58;;;;;;;3.47;3.20;;;5.50;99.90;;;;;;5055424;28;20173;-70
2021/12/18 04:06:24;;;;;;;7.00;3.83;;;5.50;99.90;;;;;;5054873;28;20193;-70
2021/12/18 04:08:50;;;;;;;2.30;1.93;;;5.50;99.90;;;;;;5054868;28;20181;-70
2021/12/18 04:11:16;;;;;;;3.57;3.37;;;5.50;99.90;;;;;;5054890;28;20184;-70
2021/12/18 04:13:44;;;;;;;2.90;2.73;;;5.50;99.90;;;;;;5054595;28;20192;-70
2021/12/18 04:16:10;;;;;;;9.97;5.70;;;5.50;99.90;;;;;;5054436;28;20250;-70
2021/12/18 04:18:36;;;;;;;3.50;3.07;;;5.50;99.90;;;;;;5054684;28;20291;-71
2021/12/18 04:21:02;;;;;;;3.43;1.67;;;5.50;99.90;;;;;;5054494;28;20177;-70
2021/12/18 04:23:28;;;;;;;8.63;5.17;;;5.60;99.90;;;;;;5037048;28;20571;-70
2021/12/18 04:25:55;;;;;;;4.43;4.10;;;5.60;99.90;;;;;;5054498;28;20204;-70
2021/12/18 04:28:21;;;;;;;10.27;6.40;;;5.60;99.90;;;;;;5054455;28;20184;-71
2021/12/18 04:30:46;;;;;;;4.97;4.10;;;5.70;99.90;;;;;;5054496;28;20599;-71
2021/12/18 04:33:12;;;;;;;5.33;4.33;;;5.70;99.90;;;;;;5054617;28;20227;-71
2021/12/18 04:35:37;;;;;;;4.80;3.43;;;5.70;99.90;;;;;;5054245;28;20197;-70
2021/12/18 04:38:03;;;;;;;9.83;5.77;;;5.70;99.90;;;;;;5054084;28;20204;-70
2021/12/18 04:40:29;;;;;;;4.40;3.00;;;5.70;99.90;;;;;;5038035;28;20196;-71
2021/12/18 04:42:55;;;;;;;4.47;4.07;;;5.70;99.90;;;;;;5045970;28;20177;-71
2021/12/18 04:45:21;;;;;;;3.40;3.20;;;5.80;99.90;;;;;;5054094;28;20614;-70
2021/12/18 04:47:47;;;;;;;7.97;5.83;;;5.80;99.90;;;;;;5049255;28;20184;-71
2021/12/18 04:50:12;;;;;;;3.10;2.97;;;5.80;99.90;;;;;;5054300;28;20188;-71
2021/12/18 04:52:38;;;;;;;11.77;6.03;;;5.80;99.90;;;;;;5054362;28;20196;-71
2021/12/18 04:55:05;;;;;;;4.97;4.60;;;5.80;99.90;;;;;;5054098;28;20228;-71
2021/12/18 04:57:31;;;;;;;10.23;7.73;;;5.70;99.90;;;;;;5053484;28;20327;-71
2021/12/18 04:59:57;;;;;;;9.10;3.83;;;5.70;99.90;;;;;;5054146;28;20264;-70
2021/12/18 05:02:33;;;;;;;9.93;4.80;;;5.60;99.90;;;;;;5036277;28;20258;-70
2021/12/18 05:04:59;;;;;;;7.17;2.73;;;5.60;99.90;;;;;;5054078;28;20196;-71
2021/12/18 05:07:25;;;;;;;3.17;2.87;;;5.60;99.90;;;;;;5053559;28;20279;-71
2021/12/18 05:09:51;;;;;;;4.97;4.40;;;5.60;99.90;;;;;;5053572;28;20189;-71
2021/12/18 05:12:17;;;;;;;8.20;6.73;;;5.60;99.90;;;;;;5053820;28;20553;-71
2021/12/18 05:14:42;;;;;;;7.40;5.00;;;5.60;99.90;;;;;;5053870;28;20262;-70
2021/12/18 05:17:08;;;;;;;7.03;5.13;;;5.60;99.90;;;;;;5053406;28;20185;-70
2021/12/18 05:19:33;;;;;;;5.33;4.90;;;5.60;99.90;;;;;;5053802;28;20177;-70
2021/12/18 05:21:59;;;;;;;2.67;2.40;;;5.60;99.90;;;;;;5053787;28;20667;-69
2021/12/18 05:24:24;;;;;;;17.43;7.30;;;5.50;99.90;;;;;;5053382;28;20553;-70
2021/12/18 05:26:50;;;;;;;3.53;3.23;;;5.50;99.90;;;;;;5053316;28;20196;-70
2021/12/18 05:29:15;;;;;;;3.87;3.67;;;5.50;99.90;;;;;;5053430;28;20183;-70
2021/12/18 05:31:41;;;;;;;9.47;5.57;;;5.40;99.90;;;;;;5035741;28;20189;-70
2021/12/18 05:34:06;;;;;;;16.43;4.27;;;5.30;99.90;;;;;;5035621;28;20238;-70
2021/12/18 05:36:34;;;;;;;1.53;1.50;;;5.30;99.90;;;;;;5053139;28;20204;-69
2021/12/18 05:39:08;;;;;;;17.43;8.50;;;5.20;99.90;;;;;;5049259;28;20292;-70
2021/12/18 05:41:35;;;;;;;2.07;1.63;;;5.20;99.90;;;;;;5016419;28;20583;-69
2021/12/18 05:44:00;;;;;;;3.87;3.67;;;5.20;99.90;;;;;;5053378;28;20238;-70
2021/12/18 05:46:26;;;;;;;7.17;5.67;;;5.20;99.90;;;;;;5032243;28;20217;-69
2021/12/18 05:48:52;;;;;;;10.30;6.93;;;5.20;99.90;;;;;;5053315;28;20183;-70
2021/12/18 05:51:17;;;;;;;4.37;3.93;;;5.30;99.90;;;;;;5035183;28;20181;-70
2021/12/18 05:53:43;;;;;;;5.63;3.77;;;5.30;99.90;;;;;;5053023;28;20185;-70
2021/12/18 05:56:10;;;;;;;11.87;3.43;;;5.30;99.90;;;;;;5052669;28;20687;-70
2021/12/18 05:58:35;;;;;;;3.13;2.90;;;5.20;99.90;;;;;;5052979;28;20209;-70
2021/12/18 06:01:01;;;;;;;5.20;3.90;;;5.20;99.90;;;;;;5034964;28;20184;-70
2021/12/18 06:03:26;;;;;;;3.53;3.03;;;5.30;99.90;;;;;;5052997;28;20181;-70
2021/12/18 06:05:52;;;;;;;4.17;3.77;;;5.30;99.90;;;;;;5034465;28;20698;-70
2021/12/18 06:08:17;;;;;;;3.30;2.73;;;5.20;99.90;;;;;;5052758;28;20544;-70
2021/12/18 06:10:43;;;;;;;5.33;4.40;;;5.30;99.90;;;;;;5052916;28;20185;-70
2021/12/18 06:13:08;;;;;;;8.30;4.73;;;5.40;99.90;;;;;;5052647;28;20180;-70
2021/12/18 06:15:34;;;;;;;2.73;2.53;;;5.40;99.90;;;;;;5052522;28;20204;-70
2021/12/18 06:18:00;;;;;;;9.67;6.37;;;5.50;99.90;;;;;;5052386;28;20209;-70
2021/12/18 06:20:27;;;;;;;14.80;6.57;;;5.40;99.90;;;;;;5052520;28;20177;-70
2021/12/18 06:22:53;;;;;;;6.27;3.10;;;5.40;99.90;;;;;;5051664;28;20177;-70
2021/12/18 06:25:19;;;;;;;6.80;6.23;;;5.40;99.90;;;;;;5052444;28;20630;-70
2021/12/18 06:27:45;;;;;;;10.43;7.03;;;5.50;99.90;;;;;;5052061;28;20264;-70
2021/12/18 06:30:12;;;;;;;22.20;8.37;;;5.50;99.90;;;;;;5034526;28;20276;-70
2021/12/18 06:32:39;;;;;;;2.97;2.70;;;5.50;99.90;;;;;;5052502;28;20184;-70
2021/12/18 06:35:06;;;;;;;6.33;5.83;;;5.60;99.90;;;;;;5052141;28;20205;-70
2021/12/18 06:37:32;;;;;;;3.93;3.63;;;5.60;99.90;;;;;;5051713;28;20704;-70
2021/12/18 06:39:57;;;;;;;2.60;2.43;;;5.60;99.90;;;;;;5040382;28;20188;-70
2021/12/18 06:42:23;;;;;;;4.93;4.10;;;5.50;99.90;;;;;;5039596;28;20177;-69
2021/12/18 06:44:49;;;;;;;3.57;3.33;;;5.50;99.90;;;;;;5051858;28;20239;-68
2021/12/18 06:47:14;;;;;;;4.73;3.77;;;5.50;99.90;;;;;;5047323;28;20329;-68
2021/12/18 06:49:40;;;;;;;6.43;5.73;;;5.50;99.90;;;;;;5051911;28;20193;-69
2021/12/18 06:52:06;;;;;;;8.23;4.63;;;5.50;99.90;;;;;;5051846;28;20213;-69
2021/12/18 06:54:32;;;;;;;6.57;6.07;;;5.50;99.90;;;;;;5051758;28;20545;-69
2021/12/18 06:56:57;;;;;;;3.93;3.47;;;5.50;99.90;;;;;;5051691;28;20268;-69
2021/12/18 06:59:23;;;;;;;7.63;4.40;;;5.50;99.90;;;;;;5051858;28;20283;-69
2021/12/18 07:01:52;;;;;;;4.10;3.70;;;5.50;99.90;;;;;;5033900;28;20177;-70
2021/12/18 07:04:20;;;;;;;5.07;4.57;;;5.50;99.90;;;;;;5052056;28;20169;-70
2021/12/18 07:06:46;;;;;;;8.20;6.30;;;5.50;99.90;;;;;;5051302;28;20721;-70
2021/12/18 07:09:11;;;;;;;5.97;4.53;;;5.40;99.90;;;;;;5051629;28;20185;-70
2021/12/18 07:11:37;;;;;;;7.73;6.97;;;5.30;99.90;;;;;;5052073;28;20181;-70
2021/12/18 07:14:03;;;;;;;6.43;5.33;;;5.30;99.90;;;;;;5051920;28;20195;-70
2021/12/18 07:16:28;;;;;;;8.53;6.53;;;5.30;99.90;;;;;;5051433;28;20201;-72
2021/12/18 07:18:54;;;;;;;4.17;2.50;;;5.30;99.90;;;;;;5051402;28;20199;-70
2021/12/18 07:21:19;;;;;;;4.33;3.00;;;5.30;99.90;;;;;;5051509;28;20596;-71
2021/12/18 07:23:45;;;;;;;8.67;3.20;;;5.40;99.90;;;;;;5051346;28;20675;-71
2021/12/18 07:26:12;;;;;;;18.63;6.83;;;5.40;99.90;;;;;;5051428;28;20219;-71
2021/12/18 07:28:38;;;;;;;5.53;4.03;;;5.40;99.90;;;;;;5051579;28;20614;-71
2021/12/18 07:31:04;;;;;;;4.30;3.97;;;5.40;99.90;;;;;;5051445;28;20270;-72
2021/12/18 07:33:29;;;;;;;5.83;3.60;;;5.40;99.90;;;;;;5051709;28;20241;-72
2021/12/18 07:35:55;;;;;;;10.00;7.07;;;5.40;99.90;;;;;;5050286;28;20212;-71
2021/12/18 07:38:21;;;;;;;6.73;5.37;;;5.40;99.90;;;;;;5032977;28;20688;-72
2021/12/18 07:40:46;;;;;;;6.43;3.83;;;5.40;99.90;;;;;;5032672;28;20526;-72
2021/12/18 07:43:12;;;;;;;8.27;7.57;;;5.40;99.90;;;;;;5045191;28;20264;-72
2021/12/18 07:45:38;;;;;;;1.93;1.80;;;5.40;99.90;;;;;;5050792;28;20211;-72
2021/12/18 07:48:04;;;;;;;4.27;3.93;;;5.40;99.90;;;;;;5046233;28;20180;-72
2021/12/18 07:50:30;;;;;;;5.67;5.13;;;5.40;99.90;;;;;;5051010;28;20192;-72
2021/12/18 07:52:55;;;;;;;9.73;4.70;;;5.40;99.90;;;;;;5051062;28;20560;-72
2021/12/18 07:55:22;;;;;;;7.03;4.13;;;5.30;99.90;;;;;;5051053;28;20208;-72
2021/12/18 07:57:50;;;;;;;8.80;4.60;;;5.30;99.90;;;;;;5032819;28;20201;-70
2021/12/18 08:00:16;;;;;;;8.30;3.73;;;5.30;99.90;;;;;;5051126;28;20181;-72
2021/12/18 08:02:42;;;;;;;4.33;3.40;;;5.30;99.90;;;;;;5050954;28;20314;-71
2021/12/18 08:05:08;;;;;;;6.17;5.70;;;5.30;99.90;;;;;;5050700;28;20271;-72
2021/12/18 08:07:34;;;;;;;15.03;8.27;;;5.30;99.90;;;;;;5032689;28;20648;-71
2021/12/18 08:09:59;;;;;;;8.57;7.37;;;5.20;99.90;;;;;;5051137;28;20188;-72
2021/12/18 08:12:25;;;;;;;3.03;2.43;;;5.20;99.90;;;;;;5050749;28;20185;-72
2021/12/18 08:14:51;;;;;;;7.50;6.83;;;5.20;99.90;;;;;;5050828;28;20197;-73
2021/12/18 08:17:16;;;;;;;5.07;3.30;;;5.20;99.90;;;;;;5050420;28;20181;-71
2021/12/18 08:19:42;;;;;;;4.17;3.20;;;5.20;99.90;;;;;;5050799;28;20185;-71
2021/12/18 08:22:08;;;;;;;3.63;3.33;;;5.20;99.90;;;;;;5050780;28;20660;-70
2021/12/18 08:24:33;;;;;;;8.50;7.67;;;5.20;99.90;;;;;;5032845;28;20656;-72
2021/12/18 08:26:59;;;;;;;7.87;4.70;;;5.20;99.90;;;;;;5050604;28;20208;-72
2021/12/18 08:29:25;;;;;;;9.30;2.47;;;5.20;99.90;;;;;;5050812;28;20181;-72
2021/12/18 08:31:51;;;;;;;12.40;5.83;;;5.30;99.90;;;;;;5050766;28;20235;-71
2021/12/18 08:34:21;;;;;;;7.87;7.13;;;5.30;99.90;;;;;;5032697;28;20188;-72
2021/12/18 08:36:47;;;;;;;15.47;4.07;;;5.30;99.90;;;;;;5050302;28;20687;-72
2021/12/18 08:39:12;;;;;;;4.30;2.43;;;5.30;99.90;;;;;;5045018;28;20293;-72
2021/12/18 08:41:39;;;;;;;9.83;4.70;;;5.40;99.90;;;;;;5031812;28;20245;-74
2021/12/18 08:44:05;;;;;;;8.83;4.77;;;5.40;99.90;;;;;;5050763;28;20177;-74
2021/12/18 08:46:30;;;;;;;3.67;3.33;;;5.50;99.90;;;;;;5032198;28;20226;-74
2021/12/18 08:48:56;;;;;;;6.47;5.90;;;5.50;99.90;;;;;;5054175;28;20173;-73
2021/12/18 08:51:21;;;;;;;2.37;2.27;;;5.50;99.90;;;;;;5054473;28;20213;-73
2021/12/18 08:53:47;;;;;;;14.53;5.27;;;5.50;99.90;;;;;;5054288;28;20224;-73
2021/12/18 08:56:12;;;;;;;19.70;5.33;;;5.50;99.90;;;;;;5053842;28;20660;-73
2021/12/18 08:58:38;;;;;;;7.37;6.87;;;5.50;99.90;;;;;;5054086;28;20203;-73
2021/12/18 09:01:04;;;;;;;5.73;4.33;;;5.50;99.90;;;;;;5054087;28;20529;-73
2021/12/18 09:03:30;;;;;;;9.73;5.47;;;5.50;99.90;;;;;;5035802;28;20200;-73
2021/12/18 09:05:56;;;;;;;6.53;3.50;;;5.50;99.90;;;;;;5053298;28;20224;-73
2021/12/18 09:08:21;;;;;;;8.63;7.63;;;5.50;99.90;;;;;;5053871;28;20656;-73
2021/12/18 09:10:47;;;;;;;4.33;3.13;;;5.60;99.90;;;;;;5053866;28;20219;-73
2021/12/18 09:13:12;;;;;;;10.97;8.50;;;5.50;99.90;;;;;;5053995;28;20211;-73
2021/12/18 09:15:38;;;;;;;3.00;2.80;;;5.60;99.90;;;;;;5053602;28;20205;-72
2021/12/18 09:18:03;;;;;;;19.00;4.70;;;5.60;99.90;;;;;;5047778;28;20201;-73
2021/12/18 09:20:30;;;;;;;18.60;5.07;;;5.60;99.90;;;;;;5047487;28;20644;-73
2021/12/18 09:22:58;;;;;;;4.40;4.00;;;5.70;99.90;;;;;;5043729;28;20280;-73
2021/12/18 09:25:23;;;;;;;24.47;3.83;;;5.70;99.90;;;;;;5053399;28;20204;-73
2021/12/18 09:27:49;;;;;;;8.50;5.17;;;5.70;99.90;;;;;;5053383;28;20453;-72
2021/12/18 09:30:15;;;;;;;15.83;6.57;;;5.70;99.90;;;;;;5053556;28;20271;-74
2021/12/18 09:32:41;;;;;;;2.47;2.27;;;5.70;99.90;;;;;;5053288;28;20243;-73
2021/12/18 09:35:09;;;;;;;3.03;2.80;;;5.70;99.90;;;;;;5053550;28;20209;-73
2021/12/18 09:37:35;;;;;;;4.63;3.37;;;5.80;99.90;;;;;;5052993;28;20267;-74
2021/12/18 09:40:00;;;;;;;7.63;3.93;;;5.80;99.90;;;;;;5023472;28;20272;-74
2021/12/18 09:42:26;;;;;;;23.97;5.73;;;5.80;99.90;;;;;;5041071;28;20181;-74
2021/12/18 09:47:21;;;;;;;4.00;3.60;;;5.90;99.90;;;;;;5056663;28;20196;-73
2021/12/18 09:49:48;;;;;;;4.53;3.27;;;5.90;99.90;;;;;;5049310;28;20169;-75
2021/12/18 09:52:14;;;;;;;6.23;5.40;;;6.00;99.90;;;;;;5061047;28;20180;-75
2021/12/18 09:54:39;;;;;;;6.83;3.23;;;6.10;99.90;;;;;;5058433;28;20229;-72
2021/12/18 09:57:05;;;;;;;4.90;4.53;;;6.10;99.90;;;;;;5078357;28;20229;-72
2021/12/18 09:59:30;;;;;;;3.27;3.07;;;6.20;99.90;;;;;;5080187;28;20207;-71
2021/12/18 10:01:56;;;;;;;10.23;6.00;;;6.20;99.90;;;;;;5082489;28;20207;-73
2021/12/18 10:04:36;;;;;;;2.83;2.60;;;6.20;99.90;;;;;;5083871;28;20180;-72
2021/12/18 10:07:15;;;;;;;7.87;3.70;;;6.20;99.90;;;;;;5078768;28;20200;-72
2021/12/18 10:09:41;;;;;;;2.60;2.10;;;6.10;99.90;;;;;;5079129;28;20172;-72
2021/12/18 10:12:15;;;;;;;3.40;3.10;;;6.20;99.90;;;;;;5061538;28;20242;-72
2021/12/18 10:14:49;;;;;;;4.70;4.30;;;6.20;99.90;;;;;;5078876;28;20546;-74
2021/12/18 10:17:35;;;;;;;20.73;3.73;;;6.20;99.90;;;;;;5065172;28;20177;-73
2021/12/18 10:20:10;;;;;;;4.23;3.93;;;6.10;99.90;;;;;;5060484;28;20200;-72
2021/12/18 10:22:42;;;;;;;2.23;2.13;;;6.20;99.90;;;;;;5080277;28;20230;-72
2021/12/18 10:25:09;;;;;;;2.73;2.63;;;6.10;99.90;;;;;;5078881;28;20242;-72
2021/12/18 10:27:41;;;;;;;15.23;6.37;;;6.10;99.90;;;;;;5078000;28;20181;-72
2021/12/18 10:30:16;;;;;;;29.03;3.90;;;6.10;99.90;;;;;;5075075;28;20175;-72
2021/12/18 10:33:00;;;;;;;4.23;3.83;;;6.20;99.90;;;;;;5073950;28;20195;-71
2021/12/18 10:35:38;;;;;;;14.20;4.80;;;6.20;99.90;;;;;;5073345;28;20195;-72
2021/12/18 10:38:04;;;;;;;2.17;2.07;;;6.20;99.90;;;;;;5072657;28;20204;-72
2021/12/18 10:40:42;;;;;;;8.20;3.30;;;6.20;99.90;;;;;;5038643;28;20173;-72
2021/12/18 10:43:07;;;;;;;12.43;3.90;;;6.30;99.90;;;;;;5066285;28;20176;-72
2021/12/18 10:45:34;;;;;;;4.87;4.50;;;6.30;99.90;;;;;;5072307;28;20257;-72
2021/12/18 10:48:06;;;;;;;3.80;3.50;;;6.30;99.90;;;;;;5035657;28;20207;-72
2021/12/18 10:50:39;;;;;;;6.83;6.20;;;6.40;99.90;;;;;;5059918;28;20168;-72
2021/12/18 10:53:12;;;;;;;3.33;2.30;;;6.40;99.90;;;;;;5072321;28;20192;-73
2021/12/18 10:55:39;;;;;;;8.20;2.57;;;6.50;99.90;;;;;;5072086;28;20262;-72
2021/12/18 10:58:08;;;;;;;6.03;5.40;;;6.50;99.90;;;;;;5076184;28;20208;-72
2021/12/18 11:00:36;;;;;;;7.67;5.70;;;6.50;99.90;;;;;;5074363;28;20172;-72
2021/12/18 11:03:18;;;;;;;4.17;3.87;;;6.50;99.90;;;;;;5074254;28;20299;-72
2021/12/18 11:05:59;;;;;;;2.53;1.97;;;6.40;99.90;;;;;;5074329;28;20543;-72
2021/12/18 11:08:25;;;;;;;6.60;3.77;;;6.50;99.90;;;;;;5063679;28;20219;-72
2021/12/18 11:13:38;;;;;;;2.97;2.67;;;6.50;99.90;;;;;;5051958;28;20170;-73
2021/12/18 11:13:48;;;;;;;3.60;3.40;;;6.50;99.90;;;;;;5054061;28;20261;-71
2021/12/18 11:16:16;;;;;;;3.00;2.67;;;6.50;99.90;;;;;;5055060;28;20258;-72
2021/12/18 11:18:43;;;;;;;9.23;4.70;;;6.60;99.90;;;;;;5063884;28;20196;-71
2021/12/18 11:21:08;;;;;;;7.83;4.07;;;6.60;99.90;;;;;;5071790;28;20183;-72
2021/12/18 11:23:51;;;;;;;4.13;3.37;;;6.70;99.90;;;;;;5053367;28;20188;-72
2021/12/18 11:26:18;;;;;;;6.50;2.30;;;6.80;99.90;;;;;;5047704;28;20200;-73
2021/12/18 11:28:50;;;;;;;1.73;1.70;;;6.80;99.90;;;;;;5070985;28;20310;-73
2021/12/18 11:31:17;;;;;;;5.77;3.13;;;6.80;99.90;;;;;;5053830;28;20188;-73
2021/12/18 11:33:43;;;;;;;3.30;3.03;;;6.80;99.90;;;;;;5053375;28;20215;-72
2021/12/18 11:36:09;;;;;;;1.53;1.47;;;6.90;99.90;;;;;;5071537;28;20208;-73
2021/12/18 11:38:39;;;;;;;3.80;3.53;;;6.90;99.90;;;;;;5053058;28;20682;-72
2021/12/18 11:41:05;;;;;;;1.63;1.63;;;6.90;99.90;;;;;;5051936;28;20196;-73
2021/12/18 11:43:37;;;;;;;4.47;2.90;;;6.90;99.90;;;;;;5056269;28;20648;-72
2021/12/18 11:46:27;;;;;;;4.83;4.37;;;7.00;99.90;;;;;;5032072;28;1124629;-72
2021/12/18 11:48:57;;;;;;;9.27;4.57;;;6.90;99.90;;;;;;5040770;28;20207;-72
2021/12/18 11:51:23;;;;;;;1.80;1.57;;;6.90;99.90;;;;;;5073543;28;20172;-72
2021/12/18 11:53:49;;;;;;;2.20;2.10;;;6.90;99.90;;;;;;5072133;28;20184;-72
2021/12/18 11:56:14;;;;;;;4.43;3.87;;;6.80;99.90;;;;;;5071245;28;20208;-72
2021/12/18 11:58:43;;;;;;;4.63;2.77;;;6.90;99.90;;;;;;5054133;28;20208;-72
2021/12/18 12:01:25;;;;;;;4.73;3.13;;;7.00;99.90;;;;;;5072085;28;20191;-71
2021/12/18 12:03:51;;;;;;;4.47;1.90;;;7.10;99.90;;;;;;5072524;28;20179;-74
2021/12/18 12:06:35;;;;;;;2.60;2.50;;;7.10;99.90;;;;;;5054034;28;20192;-72
2021/12/18 12:09:55;;;;;;;3.70;2.53;;;7.20;99.90;;;;;;5042876;28;20327;-71
2021/12/18 12:12:13;;;;;;;11.77;4.97;;;7.10;99.90;;;;;;5046633;28;20193;-72
2021/12/18 12:14:41;;;;;;;5.90;5.47;;;7.00;99.90;;;;;;5071039;28;20200;-73
2021/12/18 12:17:21;;;;;;;7.53;2.67;;;7.00;99.90;;;;;;5071918;28;20684;-72
2021/12/18 12:20:10;;;;;;;2.27;2.17;;;7.00;99.90;;;;;;5072066;28;20176;-73
2021/12/18 12:22:38;;;;;;;30.70;6.10;;;6.90;99.90;;;;;;5077046;28;20188;-73
2021/12/18 12:25:07;;;;;;;12.83;4.17;;;7.00;99.90;;;;;;5076344;28;20321;-73
2021/12/18 12:27:57;;;;;;;5.37;4.87;;;7.00;99.90;;;;;;5076242;28;20172;-73
2021/12/18 12:30:30;;;;;;;1.13;1.13;;;7.00;99.90;;;;;;5065482;28;20181;-73
2021/12/18 12:33:02;;;;;;;3.80;3.50;;;7.10;99.90;;;;;;5075937;28;20180;-73
2021/12/18 12:35:27;;;;;;;2.33;2.07;;;7.10;99.90;;;;;;5076119;28;20315;-71
2021/12/18 12:37:54;;;;;;;3.33;2.87;;;7.20;99.90;;;;;;5075588;28;20299;-73
2021/12/18 12:40:32;;;;;;;2.00;1.90;;;7.20;99.90;;;;;;5061397;28;20170;-72
2021/12/18 12:43:22;;;;;;;2.67;2.47;;;7.30;99.90;;;;;;5058002;28;20171;-73
2021/12/18 12:45:51;;;;;;;3.30;2.73;;;7.30;99.90;;;;;;5065554;28;20737;-72
2021/12/18 12:48:20;;;;;;;1.77;1.63;;;7.20;99.90;;;;;;5067685;28;20257;-73
2021/12/18 12:51:00;;;;;;;6.20;3.43;;;7.20;99.90;;;;;;5076094;28;20652;-73
2021/12/18 12:53:52;;;;;;;3.13;2.47;;;7.20;99.90;;;;;;5075738;28;20555;-72
2021/12/18 12:56:20;;;;;;;7.23;5.13;;;7.20;99.90;;;;;;5060202;28;20197;-73
2021/12/18 12:58:48;;;;;;;3.27;3.07;;;7.30;99.90;;;;;;5075855;28;20200;-73
2021/12/18 13:01:13;;;;;;;5.13;1.43;;;7.30;99.90;;;;;;5075974;28;20195;-73
2021/12/18 13:03:48;;;;;;;4.43;2.47;;;7.30;99.90;;;;;;5075840;28;20189;-73
2021/12/18 13:06:22;;;;;;;4.07;3.23;;;7.30;99.90;;;;;;5075385;28;20199;-72
2021/12/18 13:08:49;;;;;;;3.67;2.40;;;7.30;99.90;;;;;;5056181;28;20212;-73
2021/12/18 13:11:22;;;;;;;4.30;4.03;;;7.20;99.90;;;;;;5040678;28;20189;-73
2021/12/18 13:13:48;;;;;;;1.90;1.80;;;7.20;99.90;;;;;;5061117;28;20248;-72
2021/12/18 13:16:16;;;;;;;4.10;2.90;;;7.20;99.90;;;;;;5075519;28;20196;-72
2021/12/18 13:18:48;;;;;;;4.23;3.83;;;7.30;99.90;;;;;;5075702;28;20468;-72
2021/12/18 13:21:16;;;;;;;1.40;1.27;;;7.30;99.90;;;;;;5058071;28;20581;-73
2021/12/18 13:23:55;;;;;;;11.37;5.57;;;7.20;99.90;;;;;;5075478;28;20184;-72
2021/12/18 13:26:42;;;;;;;3.10;2.90;;;7.20;99.90;;;;;;5075925;28;20203;-75
2021/12/18 13:29:21;;;;;;;7.73;2.67;;;7.20;99.90;;;;;;5077050;28;20681;-75
2021/12/18 13:31:50;;;;;;;5.63;2.93;;;7.20;99.90;;;;;;5081938;28;20203;-76
2021/12/18 13:34:32;;;;;;;4.97;2.50;;;7.20;99.90;;;;;;5079110;28;20224;-74
2021/12/18 13:37:06;;;;;;;3.53;3.33;;;7.20;99.90;;;;;;5074551;28;20193;-75
2021/12/18 13:39:35;;;;;;;7.80;7.07;;;7.20;99.90;;;;;;5066506;28;20265;-74
2021/12/18 13:42:10;;;;;;;4.63;4.23;;;7.30;99.90;;;;;;5041254;28;20699;-75
2021/12/18 13:44:47;;;;;;;6.53;4.27;;;7.30;99.90;;;;;;5075304;28;20179;-74
2021/12/18 13:47:21;;;;;;;3.23;2.87;;;7.30;99.90;;;;;;5062961;28;20247;-75
2021/12/18 13:49:49;;;;;;;5.17;3.63;;;7.30;99.90;;;;;;5071645;28;20210;-72
2021/12/18 13:52:35;;;;;;;4.07;3.03;;;7.30;99.90;;;;;;5074972;28;20176;-74
2021/12/18 13:55:17;;;;;;;4.73;4.03;;;7.30;99.90;;;;;;5074287;28;20176;-74